createdAt,value
2023-03-29T00:00:00.800Z,98073.28
2023-03-29T00:10:05.061Z,98075.41
2023-03-29T00:20:11.134Z,98052.25
2023-03-29T00:30:14.524Z,98055.16
2023-03-29T00:40:17.146Z,98045.69
2023-03-29T00:50:31.896Z,98026.31
2023-03-29T01:00:41.012Z,98012.28
2023-03-29T01:11:05.790Z,98014.41
2023-03-29T01:21:22.070Z,97995.66
2023-03-29T01:31:31.341Z,98020.94
2023-03-29T01:42:15.796Z,97998.94
2023-03-29T01:52:25.649Z,98003.34
2023-03-29T02:02:31.245Z,97983.94
2023-03-29T02:12:34.265Z,97972.84
2023-03-29T02:22:43.102Z,97980.59
2023-03-29T02:33:02.282Z,97988.56
2023-03-29T02:43:08.068Z,97996.03
2023-03-29T02:53:19.667Z,98004.31
2023-03-29T03:03:22.374Z,98019.66
2023-03-29T03:13:25.081Z,98013.00
2023-03-29T03:23:29.202Z,98003.66
2023-03-29T03:33:31.865Z,97998.31
2023-03-29T03:43:34.425Z,97999.75
2023-03-29T03:53:37.507Z,97984.94
2023-03-29T04:03:40.086Z,97994.03
2023-03-29T04:13:42.667Z,97996.16
2023-03-29T04:23:46.843Z,97992.06
2023-03-29T04:33:49.269Z,98018.47
2023-03-29T04:43:52.398Z,98004.44
2023-03-29T04:53:54.915Z,97987.63
2023-03-29T05:03:57.516Z,97985.66
2023-03-29T05:14:03.531Z,97995.56
2023-03-29T05:24:06.565Z,97970.81
2023-03-29T05:34:09.079Z,97986.13
2023-03-29T05:44:11.518Z,97991.03
2023-03-29T05:54:15.426Z,97989.16
2023-03-29T06:04:18.414Z,98002.94
2023-03-29T06:14:23.656Z,98009.00
2023-03-29T06:24:26.277Z,97997.63
2023-03-29T06:34:28.749Z,97994.81
2023-03-29T06:44:31.197Z,98001.72
2023-03-29T06:54:34.102Z,97994.34
2023-03-29T07:04:36.661Z,98005.91
2023-03-29T07:14:40.292Z,97991.78
2023-03-29T07:24:42.846Z,97976.00
2023-03-29T07:34:46.806Z,97981.97
2023-03-29T07:44:49.679Z,98015.97
2023-03-29T07:54:52.172Z,98023.56
2023-03-29T08:04:55.132Z,98017.66
2023-03-29T08:14:57.998Z,98042.50
2023-03-29T08:25:00.763Z,98049.44
2023-03-29T08:35:05.486Z,98042.22
2023-03-29T08:45:23.497Z,98040.50
2023-03-29T08:55:47.926Z,98033.16
2023-03-29T09:05:59.831Z,98045.53
2023-03-29T09:16:13.966Z,98052.91
2023-03-29T09:26:34.656Z,98057.28
2023-03-29T09:37:04.310Z,98039.66
2023-03-29T09:47:19.190Z,98039.31
2023-03-29T09:57:21.905Z,98031.44
2023-03-29T10:07:24.816Z,98014.41
2023-03-29T10:17:29.910Z,97998.44
2023-03-29T10:27:36.721Z,98009.56
2023-03-29T10:37:50.650Z,97988.97
2023-03-29T10:48:01.108Z,97987.09
2023-03-29T10:58:16.719Z,97982.47
2023-03-29T11:08:32.979Z,97965.31
2023-03-29T11:18:35.759Z,97960.25
2023-03-29T11:28:44.928Z,97960.88
2023-03-29T11:38:50.583Z,97971.63
2023-03-29T11:49:02.987Z,97953.66
2023-03-29T11:59:15.241Z,97962.34
2023-03-29T12:09:41.806Z,97970.66
2023-03-29T12:19:53.930Z,97960.03
2023-03-29T12:30:17.871Z,97934.28
2023-03-29T12:40:23.261Z,97927.53
2023-03-29T12:50:37.804Z,97922.88
2023-03-29T13:00:40.329Z,97925.44
2023-03-29T13:10:43.468Z,97910.94
2023-03-29T13:20:53.406Z,97896.13
2023-03-29T13:31:13.749Z,97901.44
2023-03-29T13:41:41.297Z,97900.62
2023-03-29T13:52:03.310Z,97890.72
2023-03-29T14:02:06.807Z,97887.03
2023-03-29T14:12:14.331Z,97884.19
2023-03-29T14:22:21.228Z,97883.94
2023-03-29T14:42:34.127Z,97871.00
2023-03-29T14:52:37.471Z,97869.34
2023-03-29T15:02:50.531Z,97861.94
2023-03-29T15:12:54.131Z,97863.03
2023-03-29T15:23:01.775Z,97831.88
2023-03-29T15:33:16.788Z,97823.44
2023-03-29T15:43:22.042Z,97820.63
2023-03-29T15:53:24.786Z,97800.09
2023-03-29T16:03:30.131Z,97794.59
2023-03-29T16:13:32.832Z,97794.66
2023-03-29T16:23:35.805Z,97765.69
2023-03-29T16:33:38.785Z,97798.69
2023-03-29T16:43:41.162Z,97781.34
2023-03-29T16:53:44.345Z,97758.47
2023-03-29T17:03:47.325Z,97730.50
2023-03-29T17:13:50.605Z,97738.59
2023-03-29T17:23:53.082Z,97749.75
2023-03-29T17:33:55.540Z,97754.28
2023-03-29T17:43:58.221Z,97763.75
2023-03-29T17:54:00.941Z,97826.47
2023-03-29T18:04:03.528Z,97844.16
2023-03-29T18:14:06.064Z,97801.03
2023-03-29T18:24:09.197Z,97773.50
2023-03-29T18:34:12.621Z,97776.03
2023-03-29T18:44:15.998Z,97754.84
2023-03-29T18:54:19.068Z,97749.59
2023-03-29T19:04:21.667Z,97748.09
2023-03-29T19:14:25.722Z,97756.09
2023-03-29T19:24:28.553Z,97772.41
2023-03-29T19:34:31.423Z,97758.88
2023-03-29T19:44:34.875Z,97730.91
2023-03-29T19:54:37.841Z,97736.94
2023-03-29T20:04:41.249Z,97737.44
2023-03-29T20:14:44.058Z,97730.47
2023-03-29T20:24:46.825Z,97681.66
2023-03-29T20:34:49.469Z,97670.97
2023-03-29T20:44:54.158Z,97668.91
2023-03-29T20:54:56.583Z,97656.56
2023-03-29T21:05:00.746Z,97647.69
2023-03-29T21:15:04.390Z,97637.75
2023-03-29T21:25:10.056Z,97631.53
2023-03-29T21:35:12.823Z,97618.56
2023-03-29T21:45:15.206Z,97611.56
2023-03-29T21:55:18.444Z,97615.13
2023-03-29T22:05:21.213Z,97600.53
2023-03-29T22:15:28.803Z,97586.44
2023-03-29T22:25:31.988Z,97588.88
2023-03-29T22:35:36.351Z,97580.00
2023-03-29T22:45:38.727Z,97570.25
2023-03-29T22:55:41.740Z,97563.25
2023-03-29T23:06:04.719Z,97550.25
2023-03-29T23:16:07.761Z,97542.66
2023-03-29T23:26:10.625Z,97534.81
2023-03-29T23:36:15.672Z,97521.81
2023-03-29T23:46:19.813Z,97516.56
2023-03-29T23:56:23.294Z,97496.75
